createdAt,value
2022-08-03T00:00:28.707Z,2.03
2022-08-03T00:03:30.593Z,1.60
2022-08-03T00:06:36.952Z,2.28
2022-08-03T00:09:39.134Z,2.40
2022-08-03T00:12:40.885Z,2.33
2022-08-03T00:15:43.379Z,2.17
2022-08-03T00:18:45.432Z,2.10
2022-08-03T00:21:47.245Z,2.00
2022-08-03T00:24:49.005Z,2.30
2022-08-03T00:27:50.861Z,2.10
2022-08-03T00:30:52.776Z,1.88
2022-08-03T00:33:58.166Z,2.08
2022-08-03T00:37:01.588Z,1.90
2022-08-03T00:40:04.159Z,2.10
2022-08-03T00:43:08.397Z,2.00
2022-08-03T00:46:10.421Z,2.33
2022-08-03T00:49:12.234Z,2.03
2022-08-03T00:52:15.487Z,1.85
2022-08-03T00:55:17.399Z,2.15
2022-08-03T00:58:19.498Z,1.95
2022-08-03T01:01:21.310Z,2.00
2022-08-03T01:04:23.126Z,1.95
2022-08-03T01:07:52.871Z,2.20
2022-08-03T01:11:15.735Z,1.83
2022-08-03T01:15:10.072Z,2.15
2022-08-03T01:18:25.914Z,1.70
2022-08-03T01:21:53.023Z,1.85
2022-08-03T01:25:07.366Z,1.60
2022-08-03T01:28:27.682Z,1.77
2022-08-03T01:33:02.784Z,2.05
2022-08-03T01:35:17.462Z,1.92
2022-08-03T01:38:33.645Z,1.85
2022-08-03T01:41:40.137Z,2.30
2022-08-03T01:44:44.260Z,2.13
2022-08-03T01:47:47.654Z,2.10
2022-08-03T01:50:51.301Z,2.00
2022-08-03T01:53:54.929Z,2.17
2022-08-03T01:56:59.034Z,2.00
2022-08-03T02:00:02.039Z,2.15
2022-08-03T02:03:13.863Z,2.03
2022-08-03T02:07:01.394Z,2.10
2022-08-03T02:09:41.637Z,2.30
2022-08-03T02:12:46.020Z,2.50
2022-08-03T02:15:49.321Z,1.85
2022-08-03T02:18:52.650Z,2.30
2022-08-03T02:21:57.408Z,2.63
2022-08-03T02:25:02.915Z,1.90
2022-08-03T02:28:11.709Z,2.10
2022-08-03T02:31:17.087Z,2.13
2022-08-03T02:34:23.255Z,2.23
2022-08-03T02:40:31.396Z,1.98
2022-08-03T02:43:39.092Z,2.38
2022-08-03T02:47:02.422Z,2.13
2022-08-03T02:50:05.182Z,2.30
2022-08-03T02:53:07.945Z,2.38
2022-08-03T02:56:11.747Z,2.00
2022-08-03T02:59:14.965Z,2.20
2022-08-03T03:02:18.407Z,2.30
2022-08-03T03:05:54.595Z,2.17
2022-08-03T03:08:42.692Z,2.75
2022-08-03T03:11:45.042Z,2.50
2022-08-03T03:14:46.869Z,2.35
2022-08-03T03:17:50.182Z,2.30
2022-08-03T03:20:53.253Z,2.60
2022-08-03T03:23:55.386Z,2.50
2022-08-03T03:26:57.998Z,2.45
2022-08-03T03:30:00.023Z,2.60
2022-08-03T03:33:02.931Z,2.30
2022-08-03T03:36:07.711Z,2.42
2022-08-03T03:39:15.941Z,2.00
2022-08-03T03:42:18.111Z,2.47
2022-08-03T03:45:21.795Z,2.05
2022-08-03T03:48:25.584Z,2.20
2022-08-03T03:51:27.357Z,2.13
2022-08-03T03:54:41.336Z,1.80
2022-08-03T03:57:43.030Z,2.15
2022-08-03T04:00:45.344Z,2.15
2022-08-03T04:03:47.179Z,1.88
2022-08-03T04:07:07.667Z,2.05
2022-08-03T04:10:35.550Z,2.00
2022-08-03T04:13:41.088Z,2.13
2022-08-03T04:16:49.219Z,2.30
2022-08-03T04:19:53.881Z,2.35
2022-08-03T04:23:00.070Z,2.20
2022-08-03T04:29:06.646Z,2.28
2022-08-03T04:32:10.282Z,1.90
2022-08-03T04:35:12.129Z,1.85
2022-08-03T04:38:18.444Z,2.40
2022-08-03T04:41:23.085Z,2.08
2022-08-03T04:44:28.480Z,2.33
2022-08-03T04:47:33.193Z,2.28
2022-08-03T04:50:35.863Z,2.22
2022-08-03T04:53:41.086Z,2.20
2022-08-03T04:56:43.733Z,2.10
2022-08-03T04:59:45.502Z,2.58
2022-08-03T05:02:47.279Z,1.92
2022-08-03T05:05:49.933Z,2.17
2022-08-03T05:08:52.596Z,2.30
2022-08-03T05:11:54.345Z,2.38
2022-08-03T05:14:56.499Z,2.50
2022-08-03T05:17:58.386Z,2.17
2022-08-03T05:21:01.211Z,2.38
2022-08-03T05:24:03.080Z,2.33
2022-08-03T05:27:05.502Z,2.65
2022-08-03T05:30:29.787Z,2.20
2022-08-03T05:33:30.511Z,2.47
2022-08-03T05:36:32.282Z,2.40
2022-08-03T05:39:34.881Z,2.72
2022-08-03T05:42:39.495Z,2.55
2022-08-03T05:45:41.520Z,2.40
2022-08-03T05:48:43.535Z,2.53
2022-08-03T05:51:45.973Z,2.28
2022-08-03T05:54:56.678Z,2.45
2022-08-03T05:57:59.380Z,2.40
2022-08-03T06:01:01.090Z,2.30
2022-08-03T06:04:02.825Z,2.78
2022-08-03T06:07:04.562Z,2.40
2022-08-03T06:10:35.438Z,2.58
2022-08-03T06:13:29.443Z,2.47
2022-08-03T06:16:31.391Z,2.75
2022-08-03T06:19:33.092Z,2.63
2022-08-03T06:22:34.838Z,2.30
2022-08-03T06:25:36.938Z,2.20
2022-08-03T06:28:53.038Z,2.15
2022-08-03T06:31:55.646Z,2.30
2022-08-03T06:34:57.350Z,2.25
2022-08-03T06:37:59.262Z,2.63
2022-08-03T06:41:02.245Z,2.20
2022-08-03T06:44:04.664Z,2.22
2022-08-03T06:47:06.486Z,2.00
2022-08-03T06:50:16.207Z,2.20
2022-08-03T06:53:21.456Z,2.28
2022-08-03T06:56:23.403Z,1.90
2022-08-03T07:00:10.871Z,1.90
2022-08-03T07:02:47.409Z,2.03
2022-08-03T07:05:49.892Z,1.60
2022-08-03T07:08:54.498Z,1.58
2022-08-03T07:11:58.849Z,1.90
2022-08-03T07:15:03.168Z,1.52
2022-08-03T07:18:05.430Z,1.75
2022-08-03T07:21:09.131Z,1.58
2022-08-03T07:24:11.029Z,1.77
2022-08-03T07:27:12.762Z,1.58
2022-08-03T07:30:15.682Z,1.42
2022-08-03T07:33:17.526Z,1.70
2022-08-03T07:36:19.335Z,1.67
2022-08-03T07:39:21.042Z,1.92
2022-08-03T07:42:23.992Z,1.80
2022-08-03T07:45:26.775Z,2.13
2022-08-03T07:48:28.824Z,1.92
2022-08-03T07:51:30.671Z,1.90
2022-08-03T07:54:32.415Z,1.85
2022-08-03T07:57:35.033Z,1.55
2022-08-03T08:00:36.949Z,1.40
2022-08-03T08:03:42.002Z,1.80
2022-08-03T08:06:54.841Z,1.45
2022-08-03T08:09:56.681Z,1.88
2022-08-03T08:12:58.966Z,1.40
2022-08-03T08:16:01.235Z,1.45
2022-08-03T08:19:02.969Z,1.48
2022-08-03T08:22:06.629Z,1.58
2022-08-03T08:25:08.970Z,1.50
2022-08-03T08:28:31.452Z,1.20
2022-08-03T08:31:32.596Z,1.63
2022-08-03T08:34:34.324Z,1.48
2022-08-03T08:37:36.215Z,1.58
2022-08-03T08:40:38.001Z,1.42
2022-08-03T08:43:40.328Z,1.30
2022-08-03T08:46:42.903Z,1.65
2022-08-03T08:50:04.047Z,1.40
2022-08-03T08:53:17.533Z,1.40
2022-08-03T08:56:25.614Z,1.55
2022-08-03T08:59:27.932Z,1.52
2022-08-03T09:02:49.788Z,1.27
2022-08-03T09:05:56.300Z,1.30
2022-08-03T09:08:58.346Z,1.10
2022-08-03T09:12:14.614Z,1.10
2022-08-03T09:15:28.096Z,1.33
2022-08-03T09:18:33.377Z,1.55
2022-08-03T09:24:41.593Z,1.08
2022-08-03T09:27:45.326Z,1.38
2022-08-03T09:30:59.681Z,1.30
2022-08-03T09:34:09.580Z,1.40
2022-08-03T09:37:16.448Z,1.52
2022-08-03T09:40:36.331Z,1.23
2022-08-03T09:43:47.171Z,1.13
2022-08-03T09:46:54.441Z,1.20
2022-08-03T09:50:07.883Z,1.35
2022-08-03T09:53:09.644Z,1.40
2022-08-03T09:56:35.257Z,1.27
2022-08-03T09:59:34.234Z,1.20
2022-08-03T10:02:37.792Z,1.17
2022-08-03T10:05:44.524Z,1.30
2022-08-03T10:09:14.178Z,1.27
2022-08-03T10:12:16.100Z,1.30
2022-08-03T10:16:21.916Z,1.40
2022-08-03T10:18:40.819Z,1.40
2022-08-03T10:21:53.616Z,1.00
2022-08-03T10:25:04.190Z,1.10
2022-08-03T10:28:08.111Z,1.25
2022-08-03T10:31:10.765Z,1.15
2022-08-03T10:34:19.293Z,1.27
2022-08-03T10:37:23.873Z,1.00
2022-08-03T10:43:56.726Z,1.05
2022-08-03T10:46:58.676Z,1.20
2022-08-03T10:50:01.358Z,1.00
2022-08-03T10:53:07.207Z,1.17
2022-08-03T10:56:54.693Z,1.13
2022-08-03T10:59:58.341Z,1.13
2022-08-03T11:03:06.708Z,0.90
2022-08-03T11:06:19.657Z,0.90
2022-08-03T11:09:21.566Z,0.90
2022-08-03T11:12:34.029Z,1.10
2022-08-03T11:15:36.075Z,1.00
2022-08-03T11:18:56.463Z,0.98
2022-08-03T11:21:59.217Z,0.90
2022-08-03T11:25:01.757Z,0.90
2022-08-03T11:28:27.050Z,1.05
2022-08-03T11:31:49.153Z,0.98
2022-08-03T11:35:07.369Z,0.90
2022-08-03T11:38:10.384Z,0.98
2022-08-03T11:41:43.308Z,1.00
2022-08-03T11:44:47.989Z,0.95
2022-08-03T11:47:54.645Z,1.10
2022-08-03T11:50:57.075Z,1.02
2022-08-03T11:54:03.961Z,1.10
2022-08-03T11:57:05.737Z,1.15
2022-08-03T12:00:26.751Z,0.80
2022-08-03T12:03:33.195Z,1.00
2022-08-03T12:06:54.980Z,1.20
2022-08-03T12:10:11.573Z,0.80
2022-08-03T12:13:56.797Z,0.90
2022-08-03T12:16:35.232Z,1.00
2022-08-03T12:19:43.862Z,1.17
2022-08-03T12:22:45.603Z,1.00
2022-08-03T12:25:49.504Z,0.90
2022-08-03T12:28:51.535Z,0.88
2022-08-03T12:31:53.310Z,0.90
2022-08-03T12:35:01.571Z,1.38
2022-08-03T12:38:03.809Z,1.00
2022-08-03T12:41:16.601Z,0.80
2022-08-03T12:44:18.540Z,1.00
2022-08-03T12:47:20.689Z,1.05
2022-08-03T12:50:28.701Z,1.00
2022-08-03T12:53:30.468Z,0.93
2022-08-03T12:56:32.342Z,1.10
2022-08-03T12:59:41.151Z,1.00
2022-08-03T13:02:46.369Z,1.00
2022-08-03T13:05:48.400Z,0.80
2022-08-03T13:09:02.293Z,0.90
2022-08-03T13:12:11.429Z,0.88
2022-08-03T13:15:13.404Z,0.95
2022-08-03T13:18:17.278Z,1.00
2022-08-03T13:21:20.799Z,1.00
2022-08-03T13:24:22.683Z,0.93
2022-08-03T13:28:10.997Z,0.80
2022-08-03T13:30:47.399Z,0.90
2022-08-03T13:33:49.155Z,1.23
2022-08-03T13:37:09.398Z,1.13
2022-08-03T13:40:11.918Z,1.02
2022-08-03T13:43:16.503Z,0.90
2022-08-03T13:46:18.284Z,0.80
2022-08-03T13:49:20.067Z,0.98
2022-08-03T13:52:21.810Z,0.98
2022-08-03T13:55:23.704Z,0.80
2022-08-03T13:58:25.479Z,0.98
2022-08-03T14:01:54.342Z,0.90
2022-08-03T14:04:49.164Z,1.00
2022-08-03T14:07:50.879Z,0.90
2022-08-03T14:10:58.779Z,0.90
2022-08-03T14:14:00.463Z,0.98
2022-08-03T14:17:02.228Z,1.00
2022-08-03T14:20:09.547Z,0.77
2022-08-03T14:23:28.073Z,0.85
2022-08-03T14:26:30.416Z,0.90
2022-08-03T14:29:32.244Z,0.90
2022-08-03T14:32:33.961Z,1.00
2022-08-03T14:35:35.849Z,0.93
2022-08-03T14:38:37.757Z,1.00
2022-08-03T14:41:39.654Z,0.80
2022-08-03T14:44:41.759Z,0.90
2022-08-03T14:50:24.538Z,1.00
2022-08-03T14:51:05.972Z,1.00
2022-08-03T14:54:07.703Z,1.10
2022-08-03T14:57:09.533Z,1.13
2022-08-03T15:00:11.938Z,1.10
2022-08-03T15:03:16.807Z,1.00
2022-08-03T15:06:19.188Z,0.90
2022-08-03T15:09:23.856Z,1.00
2022-08-03T15:12:26.248Z,1.10
2022-08-03T15:15:27.999Z,0.85
2022-08-03T15:18:29.751Z,1.00
2022-08-03T15:21:46.898Z,1.15
2022-08-03T15:24:49.774Z,1.00
2022-08-03T15:28:03.808Z,1.13
2022-08-03T15:31:06.756Z,1.27
2022-08-03T15:34:08.560Z,1.10
2022-08-03T15:37:16.221Z,1.00
2022-08-03T15:40:26.379Z,1.10
2022-08-03T15:43:28.192Z,1.08
2022-08-03T15:46:30.288Z,1.10
2022-08-03T15:49:32.643Z,1.02
2022-08-03T15:52:36.246Z,0.80
2022-08-03T15:55:38.088Z,1.27
2022-08-03T15:59:03.385Z,1.05
2022-08-03T16:02:01.954Z,1.20
2022-08-03T16:05:03.960Z,1.00
2022-08-03T16:08:10.297Z,1.10
2022-08-03T16:11:16.129Z,0.90
2022-08-03T16:14:34.818Z,0.98
2022-08-03T16:17:40.860Z,0.93
2022-08-03T16:20:42.683Z,1.10
2022-08-03T16:23:47.306Z,1.00
2022-08-03T16:26:49.395Z,1.00
2022-08-03T16:29:51.301Z,1.10
2022-08-03T16:32:53.032Z,0.70
2022-08-03T16:35:55.071Z,1.38
2022-08-03T16:38:56.896Z,1.08
2022-08-03T16:42:01.350Z,0.90
2022-08-03T16:48:06.337Z,0.98
2022-08-03T16:51:08.192Z,1.00
2022-08-03T16:54:12.388Z,1.00
2022-08-03T16:57:15.864Z,0.98
2022-08-03T17:00:34.149Z,1.10
2022-08-03T17:03:57.383Z,0.90
2022-08-03T17:07:02.931Z,1.10
2022-08-03T17:10:06.853Z,0.90
2022-08-03T17:13:08.694Z,1.02
2022-08-03T17:16:12.145Z,0.85
2022-08-03T17:19:18.143Z,0.98
2022-08-03T17:22:24.652Z,0.90
2022-08-03T17:25:51.441Z,1.10
2022-08-03T17:28:58.142Z,1.02
2022-08-03T17:32:06.521Z,1.10
2022-08-03T17:35:11.337Z,1.00
2022-08-03T17:38:17.480Z,1.00
2022-08-03T17:41:23.320Z,1.13
2022-08-03T17:44:33.058Z,0.82
2022-08-03T17:47:57.605Z,1.00
2022-08-03T17:51:06.660Z,1.05
2022-08-03T17:54:23.808Z,1.10
2022-08-03T17:58:01.352Z,1.10
2022-08-03T18:02:00.164Z,0.88
2022-08-03T18:04:57.297Z,1.48
2022-08-03T18:08:04.917Z,1.02
2022-08-03T18:11:14.434Z,1.17
2022-08-03T18:14:29.833Z,1.10
2022-08-03T18:17:54.978Z,0.82
2022-08-03T18:21:16.688Z,1.27
2022-08-03T18:24:20.060Z,1.50
2022-08-03T18:27:42.387Z,1.20
2022-08-03T18:32:03.053Z,1.40
2022-08-03T18:35:28.306Z,1.15
2022-08-03T18:38:55.690Z,1.27
2022-08-03T18:42:05.508Z,1.10
2022-08-03T18:45:15.062Z,1.13
2022-08-03T18:53:23.680Z,1.58
2022-08-03T18:57:10.060Z,2.45
2022-08-03T19:00:24.426Z,1.80
2022-08-03T19:04:06.196Z,1.30
2022-08-03T19:07:27.259Z,2.88
2022-08-03T19:10:36.878Z,2.30
2022-08-03T19:13:50.282Z,1.52
2022-08-03T19:17:00.111Z,1.40
2022-08-03T19:20:05.439Z,1.50
2022-08-03T19:23:08.220Z,1.63
2022-08-03T19:26:29.950Z,1.73
2022-08-03T19:29:59.387Z,1.52
2022-08-03T19:33:05.001Z,1.33
2022-08-03T19:36:27.311Z,1.58
2022-08-03T19:39:36.149Z,1.35
2022-08-03T19:42:50.379Z,1.60
2022-08-03T19:50:06.283Z,1.42
2022-08-03T19:53:16.152Z,1.48
2022-08-03T19:56:22.984Z,1.35
2022-08-03T19:59:36.758Z,1.50
2022-08-03T20:02:41.542Z,1.85
2022-08-03T20:05:52.313Z,2.00
2022-08-03T20:08:57.619Z,1.58
2022-08-03T20:12:00.488Z,1.63
2022-08-03T20:15:04.295Z,1.10
2022-08-03T20:18:06.098Z,1.23
2022-08-03T20:21:19.888Z,1.00
2022-08-03T20:24:29.358Z,1.10
2022-08-03T20:28:07.082Z,1.40
2022-08-03T20:31:09.342Z,1.10
2022-08-03T20:34:11.119Z,1.05
2022-08-03T20:37:19.308Z,1.40
2022-08-03T20:40:23.075Z,1.40
2022-08-03T20:43:29.316Z,1.52
2022-08-03T20:46:46.474Z,1.30
2022-08-03T20:49:54.243Z,1.17
2022-08-03T20:52:59.036Z,1.25
2022-08-03T20:56:04.812Z,1.58
2022-08-03T20:59:14.874Z,1.25
2022-08-03T21:02:19.805Z,1.77
2022-08-03T21:05:48.298Z,1.38
2022-08-03T21:09:00.061Z,1.55
2022-08-03T21:12:03.657Z,1.70
2022-08-03T21:15:09.346Z,1.98
2022-08-03T21:18:20.296Z,1.55
2022-08-03T21:21:23.531Z,1.63
2022-08-03T21:24:30.593Z,1.95
2022-08-03T21:27:32.656Z,1.60
2022-08-03T21:30:35.166Z,2.20
2022-08-03T21:33:36.978Z,1.80
2022-08-03T21:36:38.780Z,1.83
2022-08-03T21:39:50.840Z,1.95
2022-08-03T21:42:52.919Z,1.98
2022-08-03T21:46:03.112Z,1.90
2022-08-03T21:49:51.958Z,2.15
2022-08-03T21:52:40.435Z,1.90
2022-08-03T21:55:57.782Z,2.17
2022-08-03T21:59:16.144Z,2.00
2022-08-03T22:02:24.249Z,1.85
2022-08-03T22:05:42.910Z,1.80
2022-08-03T22:08:47.518Z,1.90
2022-08-03T22:11:54.013Z,2.10
2022-08-03T22:15:01.054Z,1.77
2022-08-03T22:18:04.263Z,1.67
2022-08-03T22:21:09.044Z,1.77
2022-08-03T22:24:11.552Z,1.50
2022-08-03T22:27:30.137Z,1.60
2022-08-03T22:30:33.279Z,1.75
2022-08-03T22:33:36.482Z,1.50
2022-08-03T22:36:40.572Z,1.85
2022-08-03T22:39:43.762Z,1.63
2022-08-03T22:42:47.481Z,1.90
2022-08-03T22:46:10.208Z,1.73
2022-08-03T22:49:16.415Z,1.70
2022-08-03T22:52:18.413Z,1.77
2022-08-03T22:55:24.801Z,2.10
2022-08-03T22:58:26.832Z,1.98
2022-08-03T23:01:33.028Z,1.75
2022-08-03T23:04:39.174Z,1.80
2022-08-03T23:07:41.712Z,1.75
2022-08-03T23:10:47.239Z,1.67
2022-08-03T23:13:53.422Z,1.85
2022-08-03T23:16:56.292Z,1.85
2022-08-03T23:20:08.916Z,2.10
2022-08-03T23:23:11.529Z,2.00
2022-08-03T23:26:16.185Z,1.90
2022-08-03T23:29:20.372Z,1.83
2022-08-03T23:32:25.074Z,1.90
2022-08-03T23:36:29.668Z,1.77
2022-08-03T23:39:08.711Z,1.80
2022-08-03T23:42:13.107Z,2.00
2022-08-03T23:45:18.280Z,1.70
2022-08-03T23:48:20.010Z,2.00
2022-08-03T23:52:09.142Z,1.80
2022-08-03T23:55:22.057Z,1.90
2022-08-03T23:58:45.040Z,1.77
